sensor_id;sensor_type;location;lat;lon;timestamp;pressure;altitude;pressure_sealevel;temperature;humidity
58785;BME280;44557;51.862;19.378;2022-08-21T00:00:51;98843.02;;;21.68;77.96
58785;BME280;44557;51.862;19.378;2022-08-21T00:01:52;98843.10;;;21.67;78.10
58785;BME280;44557;51.862;19.378;2022-08-21T00:03:03;98843.92;;;21.63;78.09
58785;BME280;44557;51.862;19.378;2022-08-21T00:04:06;98843.58;;;21.56;78.27
58785;BME280;44557;51.862;19.378;2022-08-21T00:05:08;98838.92;;;21.56;78.21
58785;BME280;44557;51.862;19.378;2022-08-21T00:06:10;98836.54;;;21.63;78.27
58785;BME280;44557;51.862;19.378;2022-08-21T00:07:12;98837.61;;;21.62;78.02
58785;BME280;44557;51.862;19.378;2022-08-21T00:08:14;98836.08;;;21.59;78.29
58785;BME280;44557;51.862;19.378;2022-08-21T00:09:15;98833.52;;;21.59;78.30
58785;BME280;44557;51.862;19.378;2022-08-21T00:10:18;98834.55;;;21.59;78.24
58785;BME280;44557;51.862;19.378;2022-08-21T00:11:20;98835.96;;;21.63;78.15
58785;BME280;44557;51.862;19.378;2022-08-21T00:12:22;98835.54;;;21.62;77.84
58785;BME280;44557;51.862;19.378;2022-08-21T00:13:25;98837.94;;;21.61;77.70
58785;BME280;44557;51.862;19.378;2022-08-21T00:14:26;98834.41;;;21.54;77.68
58785;BME280;44557;51.862;19.378;2022-08-21T00:15:32;98838.45;;;21.56;77.39
58785;BME280;44557;51.862;19.378;2022-08-21T00:16:35;98835.39;;;21.57;77.53
58785;BME280;44557;51.862;19.378;2022-08-21T00:17:36;98834.85;;;21.59;77.58
58785;BME280;44557;51.862;19.378;2022-08-21T00:18:38;98832.67;;;21.64;77.38
58785;BME280;44557;51.862;19.378;2022-08-21T00:19:39;98832.34;;;21.61;77.20
58785;BME280;44557;51.862;19.378;2022-08-21T00:20:43;98832.66;;;21.65;76.97
58785;BME280;44557;51.862;19.378;2022-08-21T00:21:45;98831.27;;;21.66;77.11
58785;BME280;44557;51.862;19.378;2022-08-21T00:22:47;98832.93;;;21.71;76.83
58785;BME280;44557;51.862;19.378;2022-08-21T00:23:49;98825.11;;;21.69;76.88
58785;BME280;44557;51.862;19.378;2022-08-21T00:24:50;98828.50;;;21.72;76.61
58785;BME280;44557;51.862;19.378;2022-08-21T00:25:52;98827.06;;;21.72;76.22
58785;BME280;44557;51.862;19.378;2022-08-21T00:26:54;98827.48;;;21.63;76.70
58785;BME280;44557;51.862;19.378;2022-08-21T00:27:56;98818.07;;;21.69;76.84
58785;BME280;44557;51.862;19.378;2022-08-21T00:28:58;98818.92;;;21.70;76.60
58785;BME280;44557;51.862;19.378;2022-08-21T00:29:59;98820.88;;;21.69;76.55
58785;BME280;44557;51.862;19.378;2022-08-21T00:31:01;98817.66;;;21.65;76.40
58785;BME280;44557;51.862;19.378;2022-08-21T00:32:05;98822.14;;;21.62;76.40
58785;BME280;44557;51.862;19.378;2022-08-21T00:33:06;98822.52;;;21.60;76.68
58785;BME280;44557;51.862;19.378;2022-08-21T00:34:10;98818.44;;;21.52;76.79
58785;BME280;44557;51.862;19.378;2022-08-21T00:35:16;98816.27;;;21.45;77.08
58785;BME280;44557;51.862;19.378;2022-08-21T00:36:18;98818.70;;;21.43;77.12
58785;BME280;44557;51.862;19.378;2022-08-21T00:37:20;98818.81;;;21.34;77.24
58785;BME280;44557;51.862;19.378;2022-08-21T00:38:22;98816.37;;;21.39;77.32
58785;BME280;44557;51.862;19.378;2022-08-21T00:39:23;98814.44;;;21.44;77.25
58785;BME280;44557;51.862;19.378;2022-08-21T00:40:34;98816.32;;;21.43;77.33
58785;BME280;44557;51.862;19.378;2022-08-21T00:41:38;98814.42;;;21.45;77.13
58785;BME280;44557;51.862;19.378;2022-08-21T00:42:40;98818.23;;;21.50;77.21
58785;BME280;44557;51.862;19.378;2022-08-21T00:43:42;98818.45;;;21.52;77.36
58785;BME280;44557;51.862;19.378;2022-08-21T00:44:46;98812.41;;;21.53;77.24
58785;BME280;44557;51.862;19.378;2022-08-21T00:45:49;98813.91;;;21.47;77.15
58785;BME280;44557;51.862;19.378;2022-08-21T00:46:51;98809.60;;;21.45;77.55
58785;BME280;44557;51.862;19.378;2022-08-21T00:47:53;98810.80;;;21.43;78.01
58785;BME280;44557;51.862;19.378;2022-08-21T00:48:56;98808.11;;;21.40;77.75
58785;BME280;44557;51.862;19.378;2022-08-21T00:49:58;98810.11;;;21.40;77.73
58785;BME280;44557;51.862;19.378;2022-08-21T00:51:07;98806.86;;;21.39;77.81
58785;BME280;44557;51.862;19.378;2022-08-21T00:52:13;98807.41;;;21.39;77.47
58785;BME280;44557;51.862;19.378;2022-08-21T00:53:17;98805.29;;;21.45;77.54
58785;BME280;44557;51.862;19.378;2022-08-21T00:54:21;98805.38;;;21.41;77.48
58785;BME280;44557;51.862;19.378;2022-08-21T00:55:24;98802.88;;;21.45;77.53
58785;BME280;44557;51.862;19.378;2022-08-21T00:56:28;98804.57;;;21.45;77.63
58785;BME280;44557;51.862;19.378;2022-08-21T00:57:38;98804.17;;;21.41;77.55
58785;BME280;44557;51.862;19.378;2022-08-21T00:58:42;98802.48;;;21.38;77.67
58785;BME280;44557;51.862;19.378;2022-08-21T00:59:46;98804.91;;;21.33;77.73
58785;BME280;44557;51.862;19.378;2022-08-21T01:00:50;98802.77;;;21.40;77.59
58785;BME280;44557;51.862;19.378;2022-08-21T01:01:52;98802.86;;;21.43;77.39
58785;BME280;44557;51.862;19.378;2022-08-21T01:02:55;98802.17;;;21.41;77.63
58785;BME280;44557;51.862;19.378;2022-08-21T01:03:57;98805.59;;;21.49;77.52
58785;BME280;44557;51.862;19.378;2022-08-21T01:04:59;98807.02;;;21.43;77.42
58785;BME280;44557;51.862;19.378;2022-08-21T01:06:01;98809.05;;;21.45;77.58
58785;BME280;44557;51.862;19.378;2022-08-21T01:07:04;98806.11;;;21.52;77.39
58785;BME280;44557;51.862;19.378;2022-08-21T01:08:07;98803.45;;;21.45;77.60
58785;BME280;44557;51.862;19.378;2022-08-21T01:09:09;98799.89;;;21.44;77.60
58785;BME280;44557;51.862;19.378;2022-08-21T01:10:12;98799.91;;;21.42;77.76
58785;BME280;44557;51.862;19.378;2022-08-21T01:11:15;98797.58;;;21.31;78.13
58785;BME280;44557;51.862;19.378;2022-08-21T01:12:18;98795.73;;;21.27;78.27
58785;BME280;44557;51.862;19.378;2022-08-21T01:13:21;98796.47;;;21.26;78.42
58785;BME280;44557;51.862;19.378;2022-08-21T01:14:25;98796.05;;;21.26;78.59
58785;BME280;44557;51.862;19.378;2022-08-21T01:15:32;98794.90;;;21.28;78.40
58785;BME280;44557;51.862;19.378;2022-08-21T01:16:35;98795.28;;;21.26;78.63
58785;BME280;44557;51.862;19.378;2022-08-21T01:17:37;98795.11;;;21.26;78.91
58785;BME280;44557;51.862;19.378;2022-08-21T01:18:39;98794.77;;;21.31;78.61
58785;BME280;44557;51.862;19.378;2022-08-21T01:19:41;98794.73;;;21.37;78.35
58785;BME280;44557;51.862;19.378;2022-08-21T01:22:06;98795.86;;;21.32;78.72
58785;BME280;44557;51.862;19.378;2022-08-21T01:23:08;98793.07;;;21.32;78.79
58785;BME280;44557;51.862;19.378;2022-08-21T01:24:10;98793.73;;;21.31;78.70
58785;BME280;44557;51.862;19.378;2022-08-21T01:25:14;98793.36;;;21.34;78.58
58785;BME280;44557;51.862;19.378;2022-08-21T01:26:20;98792.82;;;21.33;78.60
58785;BME280;44557;51.862;19.378;2022-08-21T01:27:23;98793.03;;;21.34;78.78
58785;BME280;44557;51.862;19.378;2022-08-21T01:28:26;98792.93;;;21.35;78.81
58785;BME280;44557;51.862;19.378;2022-08-21T01:29:43;98791.37;;;21.33;78.86
58785;BME280;44557;51.862;19.378;2022-08-21T01:30:46;98787.24;;;21.31;79.09
58785;BME280;44557;51.862;19.378;2022-08-21T01:31:48;98789.92;;;21.29;78.81
58785;BME280;44557;51.862;19.378;2022-08-21T01:32:51;98790.56;;;21.29;79.40
58785;BME280;44557;51.862;19.378;2022-08-21T01:33:54;98791.54;;;21.33;78.87
58785;BME280;44557;51.862;19.378;2022-08-21T01:34:56;98787.77;;;21.33;78.81
58785;BME280;44557;51.862;19.378;2022-08-21T01:35:57;98789.41;;;21.27;79.36
58785;BME280;44557;51.862;19.378;2022-08-21T01:36:59;98790.14;;;21.30;78.90
58785;BME280;44557;51.862;19.378;2022-08-21T01:38:01;98793.41;;;21.31;78.83
58785;BME280;44557;51.862;19.378;2022-08-21T01:39:03;98789.48;;;21.32;78.74
58785;BME280;44557;51.862;19.378;2022-08-21T01:40:07;98789.39;;;21.28;78.84
58785;BME280;44557;51.862;19.378;2022-08-21T01:41:09;98783.61;;;21.22;78.94
58785;BME280;44557;51.862;19.378;2022-08-21T01:42:11;98780.91;;;21.20;79.03
58785;BME280;44557;51.862;19.378;2022-08-21T01:43:13;98775.41;;;21.23;79.13
58785;BME280;44557;51.862;19.378;2022-08-21T01:44:14;98775.20;;;21.21;78.81
58785;BME280;44557;51.862;19.378;2022-08-21T01:45:16;98775.89;;;21.26;78.87
58785;BME280;44557;51.862;19.378;2022-08-21T01:46:18;98769.94;;;21.32;78.56
58785;BME280;44557;51.862;19.378;2022-08-21T01:47:19;98769.36;;;21.29;78.74
58785;BME280;44557;51.862;19.378;2022-08-21T01:48:21;98765.05;;;21.32;78.51
58785;BME280;44557;51.862;19.378;2022-08-21T01:49:23;98769.09;;;21.30;78.60
58785;BME280;44557;51.862;19.378;2022-08-21T01:50:24;98768.76;;;21.27;78.90
58785;BME280;44557;51.862;19.378;2022-08-21T01:51:26;98769.09;;;21.38;78.57
58785;BME280;44557;51.862;19.378;2022-08-21T01:52:28;98771.50;;;21.34;78.65
58785;BME280;44557;51.862;19.378;2022-08-21T01:53:31;98764.72;;;21.29;78.99
58785;BME280;44557;51.862;19.378;2022-08-21T01:54:32;98766.05;;;21.26;79.05
58785;BME280;44557;51.862;19.378;2022-08-21T01:55:34;98759.73;;;21.34;78.92
58785;BME280;44557;51.862;19.378;2022-08-21T01:56:42;98760.09;;;21.40;78.87
58785;BME280;44557;51.862;19.378;2022-08-21T01:57:47;98760.73;;;21.47;78.57
58785;BME280;44557;51.862;19.378;2022-08-21T01:58:49;98758.53;;;21.52;78.33
58785;BME280;44557;51.862;19.378;2022-08-21T01:59:51;98756.55;;;21.41;78.70
58785;BME280;44557;51.862;19.378;2022-08-21T02:00:53;98754.28;;;21.46;78.57
58785;BME280;44557;51.862;19.378;2022-08-21T02:01:54;98757.52;;;21.40;78.68
58785;BME280;44557;51.862;19.378;2022-08-21T02:02:56;98754.38;;;21.37;78.86
58785;BME280;44557;51.862;19.378;2022-08-21T02:03:58;98753.90;;;21.40;78.94
58785;BME280;44557;51.862;19.378;2022-08-21T02:05:00;98756.27;;;21.46;78.73
58785;BME280;44557;51.862;19.378;2022-08-21T02:06:04;98755.36;;;21.40;79.05
58785;BME280;44557;51.862;19.378;2022-08-21T02:07:06;98754.98;;;21.35;79.22
58785;BME280;44557;51.862;19.378;2022-08-21T02:08:08;98753.19;;;21.40;79.32
58785;BME280;44557;51.862;19.378;2022-08-21T02:09:11;98753.68;;;21.43;79.22
58785;BME280;44557;51.862;19.378;2022-08-21T02:10:15;98749.42;;;21.40;79.28
58785;BME280;44557;51.862;19.378;2022-08-21T02:11:17;98752.18;;;21.53;79.15
58785;BME280;44557;51.862;19.378;2022-08-21T02:12:19;98751.71;;;21.56;79.07
58785;BME280;44557;51.862;19.378;2022-08-21T02:13:21;98748.99;;;21.53;79.14
58785;BME280;44557;51.862;19.378;2022-08-21T02:14:22;98750.09;;;21.53;79.23
58785;BME280;44557;51.862;19.378;2022-08-21T02:15:24;98751.96;;;21.63;78.98
58785;BME280;44557;51.862;19.378;2022-08-21T02:16:25;98751.98;;;21.62;79.05
58785;BME280;44557;51.862;19.378;2022-08-21T02:17:27;98751.34;;;21.62;78.97
58785;BME280;44557;51.862;19.378;2022-08-21T02:18:29;98753.52;;;21.58;79.28
58785;BME280;44557;51.862;19.378;2022-08-21T02:19:31;98749.42;;;21.65;78.92
58785;BME280;44557;51.862;19.378;2022-08-21T02:20:39;98746.16;;;21.72;78.65
58785;BME280;44557;51.862;19.378;2022-08-21T02:21:41;98747.11;;;21.65;78.89
58785;BME280;44557;51.862;19.378;2022-08-21T02:22:43;98746.02;;;21.68;79.01
58785;BME280;44557;51.862;19.378;2022-08-21T02:23:45;98745.30;;;21.71;78.92
58785;BME280;44557;51.862;19.378;2022-08-21T02:24:47;98745.83;;;21.75;78.67
58785;BME280;44557;51.862;19.378;2022-08-21T02:25:48;98739.32;;;21.69;79.11
58785;BME280;44557;51.862;19.378;2022-08-21T02:26:50;98744.19;;;21.70;79.11
58785;BME280;44557;51.862;19.378;2022-08-21T02:27:52;98747.36;;;21.68;79.09
58785;BME280;44557;51.862;19.378;2022-08-21T02:28:54;98741.74;;;21.79;78.70
58785;BME280;44557;51.862;19.378;2022-08-21T02:29:57;98743.25;;;21.80;78.69
58785;BME280;44557;51.862;19.378;2022-08-21T02:30:59;98739.23;;;21.80;78.59
58785;BME280;44557;51.862;19.378;2022-08-21T02:32:02;98739.41;;;21.83;78.44
58785;BME280;44557;51.862;19.378;2022-08-21T02:33:04;98738.11;;;21.80;78.70
58785;BME280;44557;51.862;19.378;2022-08-21T02:34:06;98734.02;;;21.88;78.48
58785;BME280;44557;51.862;19.378;2022-08-21T02:35:10;98735.70;;;21.91;78.26
58785;BME280;44557;51.862;19.378;2022-08-21T02:36:12;98733.90;;;21.90;78.38
58785;BME280;44557;51.862;19.378;2022-08-21T02:37:14;98727.64;;;21.99;78.07
58785;BME280;44557;51.862;19.378;2022-08-21T02:38:19;98729.56;;;21.99;78.03
58785;BME280;44557;51.862;19.378;2022-08-21T02:39:21;98727.21;;;22.10;77.48
58785;BME280;44557;51.862;19.378;2022-08-21T02:40:26;98730.00;;;22.08;77.63
58785;BME280;44557;51.862;19.378;2022-08-21T02:41:29;98730.70;;;22.05;77.66
58785;BME280;44557;51.862;19.378;2022-08-21T02:42:30;98731.69;;;22.10;77.44
58785;BME280;44557;51.862;19.378;2022-08-21T02:43:32;98729.62;;;22.16;77.09
58785;BME280;44557;51.862;19.378;2022-08-21T02:44:34;98730.19;;;22.23;76.84
58785;BME280;44557;51.862;19.378;2022-08-21T02:45:36;98729.44;;;22.18;76.87
58785;BME280;44557;51.862;19.378;2022-08-21T02:46:38;98730.80;;;22.21;76.85
58785;BME280;44557;51.862;19.378;2022-08-21T02:47:46;98730.03;;;22.10;77.16
58785;BME280;44557;51.862;19.378;2022-08-21T02:48:49;98725.96;;;22.21;76.88
58785;BME280;44557;51.862;19.378;2022-08-21T02:49:51;98726.48;;;22.17;77.01
58785;BME280;44557;51.862;19.378;2022-08-21T02:50:57;98725.77;;;22.27;76.56
58785;BME280;44557;51.862;19.378;2022-08-21T02:51:59;98723.58;;;22.24;76.77
58785;BME280;44557;51.862;19.378;2022-08-21T02:53:01;98724.48;;;22.20;76.88
58785;BME280;44557;51.862;19.378;2022-08-21T02:54:03;98725.42;;;22.14;77.02
58785;BME280;44557;51.862;19.378;2022-08-21T02:55:04;98722.27;;;22.25;76.40
58785;BME280;44557;51.862;19.378;2022-08-21T02:56:09;98724.20;;;22.12;77.12
58785;BME280;44557;51.862;19.378;2022-08-21T02:57:11;98721.51;;;22.11;77.10
58785;BME280;44557;51.862;19.378;2022-08-21T02:58:14;98719.52;;;22.04;77.11
58785;BME280;44557;51.862;19.378;2022-08-21T02:59:16;98716.60;;;21.95;77.59
58785;BME280;44557;51.862;19.378;2022-08-21T03:00:19;98717.86;;;21.96;77.85
58785;BME280;44557;51.862;19.378;2022-08-21T03:01:21;98717.30;;;21.93;77.87
58785;BME280;44557;51.862;19.378;2022-08-21T03:02:23;98713.23;;;21.95;77.78
58785;BME280;44557;51.862;19.378;2022-08-21T03:03:26;98715.68;;;22.09;77.28
58785;BME280;44557;51.862;19.378;2022-08-21T03:04:28;98714.98;;;22.02;77.66
58785;BME280;44557;51.862;19.378;2022-08-21T03:05:30;98713.23;;;21.99;77.74
58785;BME280;44557;51.862;19.378;2022-08-21T03:06:32;98714.81;;;21.96;77.81
58785;BME280;44557;51.862;19.378;2022-08-21T03:07:36;98715.54;;;21.93;77.67
58785;BME280;44557;51.862;19.378;2022-08-21T03:08:38;98718.05;;;21.74;78.35
58785;BME280;44557;51.862;19.378;2022-08-21T03:09:39;98717.38;;;21.79;78.41
58785;BME280;44557;51.862;19.378;2022-08-21T03:10:44;98715.57;;;21.89;77.63
58785;BME280;44557;51.862;19.378;2022-08-21T03:11:46;98714.84;;;21.78;78.34
58785;BME280;44557;51.862;19.378;2022-08-21T03:12:48;98714.30;;;21.70;78.45
58785;BME280;44557;51.862;19.378;2022-08-21T03:13:50;98709.19;;;21.76;78.28
58785;BME280;44557;51.862;19.378;2022-08-21T03:14:51;98714.23;;;21.77;78.22
58785;BME280;44557;51.862;19.378;2022-08-21T03:15:53;98715.38;;;21.75;78.29
58785;BME280;44557;51.862;19.378;2022-08-21T03:16:55;98715.65;;;21.78;78.13
58785;BME280;44557;51.862;19.378;2022-08-21T03:17:57;98718.87;;;21.70;78.17
58785;BME280;44557;51.862;19.378;2022-08-21T03:18:58;98718.98;;;21.68;78.27
58785;BME280;44557;51.862;19.378;2022-08-21T03:20:01;98719.45;;;21.70;78.06
58785;BME280;44557;51.862;19.378;2022-08-21T03:21:04;98722.80;;;21.73;78.21
58785;BME280;44557;51.862;19.378;2022-08-21T03:22:06;98723.46;;;21.65;78.47
58785;BME280;44557;51.862;19.378;2022-08-21T03:23:08;98726.06;;;21.61;78.28
58785;BME280;44557;51.862;19.378;2022-08-21T03:24:10;98728.36;;;21.55;78.68
58785;BME280;44557;51.862;19.378;2022-08-21T03:25:11;98727.30;;;21.52;78.42
58785;BME280;44557;51.862;19.378;2022-08-21T03:26:13;98728.45;;;21.58;77.96
58785;BME280;44557;51.862;19.378;2022-08-21T03:27:15;98723.52;;;21.56;77.54
58785;BME280;44557;51.862;19.378;2022-08-21T03:28:19;98723.89;;;21.50;77.51
58785;BME280;44557;51.862;19.378;2022-08-21T03:29:23;98721.46;;;21.59;77.76
58785;BME280;44557;51.862;19.378;2022-08-21T03:30:24;98722.78;;;21.58;77.71
58785;BME280;44557;51.862;19.378;2022-08-21T03:31:26;98725.83;;;21.57;77.79
58785;BME280;44557;51.862;19.378;2022-08-21T03:32:34;98723.07;;;21.62;77.41
58785;BME280;44557;51.862;19.378;2022-08-21T03:33:36;98729.20;;;21.60;77.49
58785;BME280;44557;51.862;19.378;2022-08-21T03:34:38;98725.38;;;21.56;77.57
58785;BME280;44557;51.862;19.378;2022-08-21T03:35:41;98730.39;;;21.61;77.16
58785;BME280;44557;51.862;19.378;2022-08-21T03:36:43;98729.36;;;21.64;76.68
58785;BME280;44557;51.862;19.378;2022-08-21T03:37:45;98726.42;;;21.66;76.89
58785;BME280;44557;51.862;19.378;2022-08-21T03:38:48;98726.95;;;21.67;76.35
58785;BME280;44557;51.862;19.378;2022-08-21T03:39:50;98722.85;;;21.71;76.21
58785;BME280;44557;51.862;19.378;2022-08-21T03:40:52;98722.14;;;21.67;76.26
58785;BME280;44557;51.862;19.378;2022-08-21T03:41:54;98722.14;;;21.67;76.37
58785;BME280;44557;51.862;19.378;2022-08-21T03:42:56;98721.77;;;21.73;76.41
58785;BME280;44557;51.862;19.378;2022-08-21T03:43:57;98720.16;;;21.70;76.14
58785;BME280;44557;51.862;19.378;2022-08-21T03:45:00;98729.27;;;21.61;76.33
58785;BME280;44557;51.862;19.378;2022-08-21T03:46:03;98725.57;;;21.65;76.40
58785;BME280;44557;51.862;19.378;2022-08-21T03:47:05;98726.00;;;21.63;76.31
58785;BME280;44557;51.862;19.378;2022-08-21T03:48:07;98724.77;;;21.65;76.18
58785;BME280;44557;51.862;19.378;2022-08-21T03:49:09;98724.39;;;21.64;76.43
58785;BME280;44557;51.862;19.378;2022-08-21T03:50:10;98724.13;;;21.64;76.60
58785;BME280;44557;51.862;19.378;2022-08-21T03:51:12;98722.64;;;21.66;76.39
58785;BME280;44557;51.862;19.378;2022-08-21T03:52:13;98722.95;;;21.64;76.14
58785;BME280;44557;51.862;19.378;2022-08-21T03:53:16;98721.08;;;21.64;76.25
58785;BME280;44557;51.862;19.378;2022-08-21T03:54:17;98718.19;;;21.65;76.09
58785;BME280;44557;51.862;19.378;2022-08-21T03:55:19;98719.84;;;21.66;76.16
58785;BME280;44557;51.862;19.378;2022-08-21T03:56:20;98720.11;;;21.65;75.89
58785;BME280;44557;51.862;19.378;2022-08-21T03:57:22;98717.24;;;21.70;75.71
58785;BME280;44557;51.862;19.378;2022-08-21T03:58:26;98717.88;;;21.71;75.80
58785;BME280;44557;51.862;19.378;2022-08-21T03:59:28;98713.18;;;21.77;75.56
58785;BME280;44557;51.862;19.378;2022-08-21T04:00:30;98713.69;;;21.73;75.41
58785;BME280;44557;51.862;19.378;2022-08-21T04:01:32;98716.36;;;21.74;75.23
58785;BME280;44557;51.862;19.378;2022-08-21T04:02:33;98720.15;;;21.70;75.39
58785;BME280;44557;51.862;19.378;2022-08-21T04:03:36;98724.10;;;21.66;75.29
58785;BME280;44557;51.862;19.378;2022-08-21T04:04:38;98722.73;;;21.63;74.84
58785;BME280;44557;51.862;19.378;2022-08-21T04:05:39;98722.09;;;21.73;74.94
58785;BME280;44557;51.862;19.378;2022-08-21T04:06:42;98722.30;;;21.74;74.89
58785;BME280;44557;51.862;19.378;2022-08-21T04:07:43;98724.48;;;21.74;74.92
58785;BME280;44557;51.862;19.378;2022-08-21T04:08:45;98723.63;;;21.72;74.95
58785;BME280;44557;51.862;19.378;2022-08-21T04:09:46;98724.81;;;21.70;75.17
58785;BME280;44557;51.862;19.378;2022-08-21T04:10:50;98728.04;;;21.66;75.28
58785;BME280;44557;51.862;19.378;2022-08-21T04:11:53;98727.13;;;21.66;75.43
58785;BME280;44557;51.862;19.378;2022-08-21T04:12:56;98726.36;;;21.65;74.93
58785;BME280;44557;51.862;19.378;2022-08-21T04:13:58;98728.47;;;21.64;75.36
58785;BME280;44557;51.862;19.378;2022-08-21T04:14:59;98728.80;;;21.66;75.08
58785;BME280;44557;51.862;19.378;2022-08-21T04:16:03;98726.35;;;21.62;74.84
58785;BME280;44557;51.862;19.378;2022-08-21T04:17:05;98725.06;;;21.66;74.91
58785;BME280;44557;51.862;19.378;2022-08-21T04:18:07;98726.12;;;21.68;74.85
58785;BME280;44557;51.862;19.378;2022-08-21T04:19:11;98726.95;;;21.64;74.51
58785;BME280;44557;51.862;19.378;2022-08-21T04:20:16;98726.12;;;21.69;74.68
58785;BME280;44557;51.862;19.378;2022-08-21T04:21:18;98723.33;;;21.72;74.75
58785;BME280;44557;51.862;19.378;2022-08-21T04:22:19;98724.02;;;21.66;75.00
58785;BME280;44557;51.862;19.378;2022-08-21T04:23:22;98722.52;;;21.68;74.84
58785;BME280;44557;51.862;19.378;2022-08-21T04:24:23;98726.45;;;21.68;75.14
58785;BME280;44557;51.862;19.378;2022-08-21T04:25:25;98723.31;;;21.73;74.66
58785;BME280;44557;51.862;19.378;2022-08-21T04:26:29;98725.02;;;21.68;74.56
58785;BME280;44557;51.862;19.378;2022-08-21T04:27:33;98726.02;;;21.59;74.95
58785;BME280;44557;51.862;19.378;2022-08-21T04:28:35;98726.27;;;21.59;75.50
58785;BME280;44557;51.862;19.378;2022-08-21T04:29:36;98729.42;;;21.54;75.67
58785;BME280;44557;51.862;19.378;2022-08-21T04:30:38;98732.23;;;21.46;75.87
58785;BME280;44557;51.862;19.378;2022-08-21T04:31:40;98737.86;;;21.63;76.26
58785;BME280;44557;51.862;19.378;2022-08-21T04:32:44;98739.89;;;21.69;76.39
58785;BME280;44557;51.862;19.378;2022-08-21T04:33:45;98747.95;;;21.64;77.03
58785;BME280;44557;51.862;19.378;2022-08-21T04:34:47;98753.70;;;21.53;77.73
58785;BME280;44557;51.862;19.378;2022-08-21T04:35:49;98755.28;;;21.50;78.22
58785;BME280;44557;51.862;19.378;2022-08-21T04:36:51;98758.92;;;21.45;78.23
58785;BME280;44557;51.862;19.378;2022-08-21T04:37:53;98760.38;;;21.40;78.31
58785;BME280;44557;51.862;19.378;2022-08-21T04:38:54;98759.92;;;21.39;78.50
58785;BME280;44557;51.862;19.378;2022-08-21T04:39:56;98761.71;;;21.38;78.64
58785;BME280;44557;51.862;19.378;2022-08-21T04:40:59;98765.27;;;21.41;78.90
58785;BME280;44557;51.862;19.378;2022-08-21T04:42:01;98770.34;;;21.44;78.67
58785;BME280;44557;51.862;19.378;2022-08-21T04:43:08;98771.72;;;21.39;78.99
58785;BME280;44557;51.862;19.378;2022-08-21T04:44:10;98770.21;;;21.38;79.13
58785;BME280;44557;51.862;19.378;2022-08-21T04:45:34;98775.77;;;21.40;79.11
58785;BME280;44557;51.862;19.378;2022-08-21T04:46:36;98775.59;;;21.45;79.05
58785;BME280;44557;51.862;19.378;2022-08-21T04:47:37;98776.86;;;21.45;79.12
58785;BME280;44557;51.862;19.378;2022-08-21T04:48:39;98773.89;;;21.46;79.22
58785;BME280;44557;51.862;19.378;2022-08-21T04:49:43;98779.89;;;21.57;78.70
58785;BME280;44557;51.862;19.378;2022-08-21T04:52:05;98777.23;;;21.54;79.09
58785;BME280;44557;51.862;19.378;2022-08-21T04:53:10;98772.82;;;21.55;79.01
58785;BME280;44557;51.862;19.378;2022-08-21T04:54:17;98767.91;;;21.62;78.85
58785;BME280;44557;51.862;19.378;2022-08-21T04:55:20;98766.14;;;21.73;78.69
58785;BME280;44557;51.862;19.378;2022-08-21T04:56:33;98766.80;;;21.76;78.29
58785;BME280;44557;51.862;19.378;2022-08-21T04:57:37;98774.09;;;21.69;78.61
58785;BME280;44557;51.862;19.378;2022-08-21T04:58:39;98776.10;;;21.69;78.95
58785;BME280;44557;51.862;19.378;2022-08-21T04:59:46;98772.88;;;21.66;78.75
58785;BME280;44557;51.862;19.378;2022-08-21T05:00:48;98775.81;;;21.67;78.72
58785;BME280;44557;51.862;19.378;2022-08-21T05:01:50;98776.05;;;21.64;79.07
58785;BME280;44557;51.862;19.378;2022-08-21T05:02:53;98776.29;;;21.71;78.98
58785;BME280;44557;51.862;19.378;2022-08-21T05:03:59;98773.45;;;21.76;78.55
58785;BME280;44557;51.862;19.378;2022-08-21T05:05:01;98779.71;;;21.76;78.83
58785;BME280;44557;51.862;19.378;2022-08-21T05:06:07;98776.74;;;21.83;78.50
58785;BME280;44557;51.862;19.378;2022-08-21T05:07:13;98777.17;;;21.82;78.43
58785;BME280;44557;51.862;19.378;2022-08-21T05:08:19;98782.91;;;21.87;78.03
58785;BME280;44557;51.862;19.378;2022-08-21T05:09:23;98782.54;;;21.86;78.10
58785;BME280;44557;51.862;19.378;2022-08-21T05:10:25;98780.10;;;21.91;77.92
58785;BME280;44557;51.862;19.378;2022-08-21T05:11:28;98781.09;;;21.93;78.14
58785;BME280;44557;51.862;19.378;2022-08-21T05:12:31;98780.82;;;21.91;78.09
58785;BME280;44557;51.862;19.378;2022-08-21T05:13:35;98781.90;;;21.90;78.05
58785;BME280;44557;51.862;19.378;2022-08-21T05:14:37;98784.94;;;21.89;78.32
58785;BME280;44557;51.862;19.378;2022-08-21T05:15:40;98784.28;;;21.97;78.01
58785;BME280;44557;51.862;19.378;2022-08-21T05:16:41;98782.86;;;21.96;78.06
58785;BME280;44557;51.862;19.378;2022-08-21T05:17:45;98785.50;;;22.03;77.64
58785;BME280;44557;51.862;19.378;2022-08-21T05:18:46;98783.91;;;22.03;77.51
58785;BME280;44557;51.862;19.378;2022-08-21T05:19:49;98788.08;;;22.09;77.42
58785;BME280;44557;51.862;19.378;2022-08-21T05:20:51;98789.14;;;22.21;77.12
58785;BME280;44557;51.862;19.378;2022-08-21T05:21:52;98790.26;;;22.19;77.18
58785;BME280;44557;51.862;19.378;2022-08-21T05:22:55;98786.25;;;22.19;77.06
58785;BME280;44557;51.862;19.378;2022-08-21T05:23:56;98788.11;;;22.15;77.05
58785;BME280;44557;51.862;19.378;2022-08-21T05:24:58;98785.27;;;22.19;76.94
58785;BME280;44557;51.862;19.378;2022-08-21T05:25:59;98787.02;;;22.21;77.01
58785;BME280;44557;51.862;19.378;2022-08-21T05:27:02;98786.19;;;22.22;77.21
58785;BME280;44557;51.862;19.378;2022-08-21T05:28:05;98784.11;;;22.34;76.89
58785;BME280;44557;51.862;19.378;2022-08-21T05:29:07;98787.18;;;22.42;76.61
58785;BME280;44557;51.862;19.378;2022-08-21T05:30:09;98786.27;;;22.52;76.23
58785;BME280;44557;51.862;19.378;2022-08-21T05:31:11;98786.84;;;22.63;75.68